Time;durP1;ratioP1;P1;durP2;ratioP2;P2;SDS_P1;SDS_P2;PMS_P1;PMS_P2;Temp;Humidity;BMP_temperature;BMP_pressure;BME280_temperature;BME280_humidity;BME280_pressure;Samples;Min_cycle;Max_cycle;Signal;HPM_P1;HPM_P2
2022/12/30 00:01:08;;;;;;;;;;;6.60;99.90;;;;;;5043971;28;19984;-68
2022/12/30 00:03:35;;;;;;;;;;;6.50;99.90;;;;;;5043783;28;19928;-68
2022/12/30 00:06:02;;;;;;;;;;;6.40;99.90;;;;;;5043560;28;19921;-68
2022/12/30 00:11:09;;;;;;;;;;;6.40;99.90;;;;;;5041714;28;19952;-66
2022/12/30 00:33:08;;;;;;;;;;;6.40;99.90;;;;;;5043313;28;19924;-68
2022/12/30 00:35:35;;;;;;;;;;;6.40;99.90;;;;;;5043430;28;19952;-68
2022/12/30 00:38:01;;;;;;;;;;;6.40;99.90;;;;;;5042871;28;19952;-68
2022/12/30 00:40:28;;;;;;;;;;;6.50;99.90;;;;;;5043102;28;19992;-68
2022/12/30 00:43:08;;;;;;;;;;;6.50;99.90;;;;;;5043384;28;19952;-68
2022/12/30 00:45:36;;;;;;;;;;;6.40;99.90;;;;;;5042931;28;19921;-68
2022/12/30 00:56:16;;;;;;;;;;;6.40;99.90;;;;;;5042016;28;19992;-66
2022/12/30 00:58:43;;;;;;;;;;;6.40;99.90;;;;;;5043192;28;20163;-68
2022/12/30 01:01:10;;;;;;;;;;;6.30;99.90;;;;;;5043045;28;19984;-69
2022/12/30 01:03:38;;;;;;;;;;;6.30;99.90;;;;;;5043186;28;19921;-68
2022/12/30 01:06:05;;;;;;;;;;;6.30;99.90;;;;;;5042906;28;20008;-68
2022/12/30 01:08:32;;;;;;;;;;;6.30;99.90;;;;;;5042949;28;19921;-68
2022/12/30 01:10:59;;;;;;;;;;;6.40;99.90;;;;;;5043101;28;19984;-67
2022/12/30 01:13:25;;;;;;;;;;;6.30;99.90;;;;;;5043095;28;20188;-68
2022/12/30 01:15:52;;;;;;;;;;;6.40;99.90;;;;;;5042670;28;20229;-68
2022/12/30 01:18:19;;;;;;;;;;;6.30;99.90;;;;;;5042629;28;19964;-68
2022/12/30 01:20:47;;;;;;;;;;;6.40;99.90;;;;;;5043183;28;19953;-68
2022/12/30 01:23:13;;;;;;;;;;;6.40;99.90;;;;;;5042841;28;19928;-67
2022/12/30 01:25:40;;;;;;;;;;;6.30;99.90;;;;;;5042617;28;20157;-68
2022/12/30 01:28:07;;;;;;;;;;;6.30;99.90;;;;;;5042559;28;20259;-68
2022/12/30 01:30:33;;;;;;;;;;;6.30;99.90;;;;;;5043004;28;19985;-68
2022/12/30 01:33:00;;;;;;;;;;;6.30;99.90;;;;;;5043170;28;19957;-68
2022/12/30 01:35:27;;;;;;;;;;;6.30;99.90;;;;;;5046319;28;19921;-68
2022/12/30 01:37:55;;;;;;;;;;;6.30;99.90;;;;;;5046059;28;19997;-67
2022/12/30 01:40:21;;;;;;;;;;;6.30;99.90;;;;;;5046512;28;19992;-67
2022/12/30 01:42:48;;;;;;;;;;;6.30;99.90;;;;;;5046204;28;19953;-68
2022/12/30 01:45:18;;;;;;;;;;;6.30;99.90;;;;;;5046241;28;19928;-68
2022/12/30 01:47:47;;;;;;;;;;;6.40;99.90;;;;;;5046260;28;19921;-68
2022/12/30 01:50:20;;;;;;;;;;;6.40;99.90;;;;;;5046474;28;19988;-68
2022/12/30 01:52:49;;;;;;;;;;;6.40;99.90;;;;;;5046166;28;19988;-68
2022/12/30 01:55:19;;;;;;;;;;;6.30;99.90;;;;;;5046423;28;19963;-68
2022/12/30 01:57:47;;;;;;;;;;;6.40;99.90;;;;;;5044994;28;20275;-68
2022/12/30 02:00:13;;;;;;;;;;;6.40;99.90;;;;;;5046320;28;19921;-68
2022/12/30 02:02:41;;;;;;;;;;;6.40;99.90;;;;;;5046043;28;19979;-67
2022/12/30 02:05:08;;;;;;;;;;;6.30;99.90;;;;;;5045740;28;20263;-68
2022/12/30 02:07:36;;;;;;;;;;;6.40;99.90;;;;;;5045723;28;19921;-68
2022/12/30 02:10:03;;;;;;;;;;;6.40;99.90;;;;;;5046135;28;19992;-67
2022/12/30 02:12:31;;;;;;;;;;;6.40;99.90;;;;;;5045684;28;20213;-68
2022/12/30 02:14:58;;;;;;;;;;;6.40;99.90;;;;;;5045744;28;19968;-68
2022/12/30 02:17:27;;;;;;;;;;;6.40;99.90;;;;;;5045587;28;19980;-68
2022/12/30 02:20:13;;;;;;;;;;;6.40;99.90;;;;;;5046016;28;19921;-68
2022/12/30 02:22:51;;;;;;;;;;;6.40;99.90;;;;;;5045479;28;19921;-68
2022/12/30 02:25:35;;;;;;;;;;;6.40;99.90;;;;;;5045611;28;19984;-68
2022/12/30 02:28:20;;;;;;;;;;;6.40;99.90;;;;;;5038277;28;19984;-68
2022/12/30 02:31:07;;;;;;;;;;;6.50;99.90;;;;;;5045376;28;19927;-68
2022/12/30 02:33:37;;;;;;;;;;;6.50;99.90;;;;;;5045304;28;19989;-68
2022/12/30 02:36:09;;;;;;;;;;;6.50;99.90;;;;;;5045068;28;20239;-68
2022/12/30 02:38:39;;;;;;;;;;;6.50;99.90;;;;;;5045269;28;19927;-68
2022/12/30 02:46:48;;;;;;;;;;;6.60;99.90;;;;;;5044177;28;19959;-68
2022/12/30 02:49:16;;;;;;;;;;;6.50;99.90;;;;;;5045017;28;19988;-69
2022/12/30 02:54:28;;;;;;;;;;;6.50;99.90;;;;;;5044998;28;19971;-68
2022/12/30 02:56:55;;;;;;;;;;;6.50;99.90;;;;;;5044468;28;19928;-68
2022/12/30 03:05:06;;;;;;;;;;;6.60;99.90;;;;;;5024896;28;19963;-68
2022/12/30 03:07:36;;;;;;;;;;;6.60;99.90;;;;;;5024557;28;19921;-68
2022/12/30 03:12:55;;;;;;;;;;;6.60;99.90;;;;;;5024889;28;19923;-67
2022/12/30 03:15:23;;;;;;;;;;;6.60;99.90;;;;;;5024749;28;20431;-69
2022/12/30 03:17:52;;;;;;;;;;;6.60;99.90;;;;;;5024298;28;19928;-70
2022/12/30 03:20:20;;;;;;;;;;;6.60;99.90;;;;;;5024889;28;19928;-67
2022/12/30 03:28:19;;;;;;;;;;;6.50;99.90;;;;;;5024438;28;19924;-68
2022/12/30 03:30:47;;;;;;;;;;;6.50;99.90;;;;;;5024325;28;20276;-69
2022/12/30 03:33:16;;;;;;;;;;;6.40;99.90;;;;;;5024680;28;20112;-68
2022/12/30 03:35:46;;;;;;;;;;;6.40;99.90;;;;;;5024570;28;20016;-69
2022/12/30 03:38:13;;;;;;;;;;;6.40;99.90;;;;;;5024175;28;19981;-68
2022/12/30 03:40:42;;;;;;;;;;;6.40;99.90;;;;;;5024278;28;19956;-68
2022/12/30 03:43:10;;;;;;;;;;;6.40;99.90;;;;;;5024405;28;19932;-68
2022/12/30 03:45:37;;;;;;;;;;;6.30;99.90;;;;;;5024241;28;19928;-68
2022/12/30 03:48:03;;;;;;;;;;;6.30;99.90;;;;;;5078559;23;19921;-92
2022/12/30 03:50:31;;;;;;;;;;;6.20;99.90;;;;;;5056152;28;19921;-94
2022/12/30 03:52:58;;;;;;;;;;;6.20;99.90;;;;;;5057089;28;20097;-93
2022/12/30 03:55:25;;;;;;;;;;;6.10;99.90;;;;;;5057417;28;19940;-94
2022/12/30 03:57:52;;;;;;;;;;;6.10;99.90;;;;;;5057168;28;19932;-94
2022/12/30 04:00:19;;;;;;;;;;;6.10;99.90;;;;;;5053885;28;20223;-93
2022/12/30 04:02:45;;;;;;;;;;;6.00;99.90;;;;;;5036467;28;19922;-94
2022/12/30 04:05:12;;;;;;;;;;;6.00;99.90;;;;;;5035760;28;19922;-91
2022/12/30 04:07:40;;;;;;;;;;;5.90;99.90;;;;;;5036912;28;19910;-94
2022/12/30 04:10:07;;;;;;;;;;;5.90;99.90;;;;;;5037673;28;19917;-93
2022/12/30 04:12:34;;;;;;;;;;;5.80;99.90;;;;;;5055926;28;19921;-91
2022/12/30 04:15:01;;;;;;;;;;;5.80;99.90;;;;;;5056731;28;19921;-93
2022/12/30 04:17:27;;;;;;;;;;;5.80;99.90;;;;;;5056007;28;19921;-93
2022/12/30 04:19:54;;;;;;;;;;;5.80;99.90;;;;;;5055652;28;19956;-93
2022/12/30 04:22:21;;;;;;;;;;;5.70;99.90;;;;;;5054489;28;19945;-93
2022/12/30 04:24:49;;;;;;;;;;;5.80;99.90;;;;;;5054512;28;19921;-93
2022/12/30 04:27:15;;;;;;;;;;;5.80;99.90;;;;;;5054053;28;19929;-93
2022/12/30 04:29:42;;;;;;;;;;;5.70;99.90;;;;;;5055129;28;19954;-93
2022/12/30 04:32:09;;;;;;;;;;;5.70;99.90;;;;;;5037572;28;19921;-93
2022/12/30 04:34:36;;;;;;;;;;;5.50;99.90;;;;;;5035532;28;19941;-94
2022/12/30 04:37:02;;;;;;;;;;;5.60;99.90;;;;;;5034755;28;19928;-93
2022/12/30 04:39:29;;;;;;;;;;;5.40;99.90;;;;;;5034861;28;19922;-93
2022/12/30 04:41:57;;;;;;;;;;;5.60;99.90;;;;;;5049514;28;20136;-93
2022/12/30 04:44:24;;;;;;;;;;;5.40;99.90;;;;;;5054055;28;19924;-93
2022/12/30 04:46:51;;;;;;;;;;;5.40;99.90;;;;;;5053382;28;19956;-93
2022/12/30 04:49:17;;;;;;;;;;;5.30;99.90;;;;;;5054503;28;20092;-93
2022/12/30 04:51:44;;;;;;;;;;;5.40;99.90;;;;;;5052826;28;19951;-93
2022/12/30 04:54:11;;;;;;;;;;;5.90;99.90;;;;;;5052951;28;19948;-93
2022/12/30 04:56:37;;;;;;;;;;;5.70;99.90;;;;;;5051092;28;19951;-92
2022/12/30 04:59:06;;;;;;;;;;;5.30;99.90;;;;;;5052130;28;19989;-93
2022/12/30 05:01:32;;;;;;;;;;;5.20;99.90;;;;;;5040917;28;19921;-93
2022/12/30 05:03:59;;;;;;;;;;;5.30;99.90;;;;;;5033518;28;19921;-92
2022/12/30 05:06:26;;;;;;;;;;;5.20;99.90;;;;;;5033094;28;19921;-93
2022/12/30 05:08:52;;;;;;;;;;;5.20;99.90;;;;;;5034720;28;19944;-93
2022/12/30 05:11:19;;;;;;;;;;;5.10;99.90;;;;;;5047405;28;19952;-93
2022/12/30 05:13:46;;;;;;;;;;;5.10;99.90;;;;;;5057709;28;19959;-93
2022/12/30 05:16:14;;;;;;;;;;;5.10;99.90;;;;;;5053641;28;19928;-93
2022/12/30 05:18:41;;;;;;;;;;;5.10;99.90;;;;;;5055229;28;20135;-93
2022/12/30 05:21:07;;;;;;;;;;;5.10;99.90;;;;;;5047710;28;20010;-93
2022/12/30 05:26:18;;;;;;;;;;;5.00;99.90;;;;;;5039935;28;19952;-93
2022/12/30 05:28:46;;;;;;;;;;;5.00;99.90;;;;;;5039268;28;19921;-93
2022/12/30 05:31:15;;;;;;;;;;;5.00;99.90;;;;;;5046286;28;19921;-93
2022/12/30 05:33:42;;;;;;;;;;;5.10;99.90;;;;;;5044075;28;19932;-93
2022/12/30 05:36:10;;;;;;;;;;;4.90;99.90;;;;;;5035681;28;20216;-93
2022/12/30 05:38:37;;;;;;;;;;;4.90;99.90;;;;;;5040801;28;19913;-93
2022/12/30 05:41:04;;;;;;;;;;;4.90;99.90;;;;;;5040386;28;19977;-93
2022/12/30 05:43:31;;;;;;;;;;;4.80;99.90;;;;;;5039866;28;19932;-93
2022/12/30 05:45:58;;;;;;;;;;;4.80;99.90;;;;;;5041183;28;19932;-94
2022/12/30 05:48:26;;;;;;;;;;;4.70;99.90;;;;;;5041240;28;19919;-95
2022/12/30 05:50:53;;;;;;;;;;;4.80;99.90;;;;;;5044810;28;19944;-95
2022/12/30 05:53:20;;;;;;;;;;;4.70;99.90;;;;;;5060627;28;19916;-93
2022/12/30 05:55:47;;;;;;;;;;;4.70;99.90;;;;;;5060051;28;19914;-94
2022/12/30 05:58:14;;;;;;;;;;;4.70;99.90;;;;;;5058680;28;19921;-93
2022/12/30 06:00:41;;;;;;;;;;;4.70;99.90;;;;;;5057919;28;19945;-93
2022/12/30 06:03:07;;;;;;;;;;;4.60;99.90;;;;;;5038847;28;19940;-93
2022/12/30 06:05:35;;;;;;;;;;;4.60;99.90;;;;;;5036450;28;19924;-93
2022/12/30 06:08:02;;;;;;;;;;;4.60;99.90;;;;;;5039379;28;19909;-94
2022/12/30 06:10:29;;;;;;;;;;;5.40;99.90;;;;;;5038528;28;19922;-93
2022/12/30 06:12:56;;;;;;;;;;;4.50;99.90;;;;;;5033965;28;19941;-93
2022/12/30 06:15:22;;;;;;;;;;;4.50;99.90;;;;;;5035087;28;19929;-93
2022/12/30 06:17:49;;;;;;;;;;;4.40;99.90;;;;;;5038194;28;19922;-93
2022/12/30 06:20:16;;;;;;;;;;;4.40;99.90;;;;;;5036945;28;19928;-95
2022/12/30 06:22:44;;;;;;;;;;;4.30;99.90;;;;;;5038843;28;19909;-94
2022/12/30 06:25:11;;;;;;;;;;;4.30;99.90;;;;;;5038787;28;19929;-93
2022/12/30 06:27:37;;;;;;;;;;;4.30;99.90;;;;;;5038062;28;20160;-94
2022/12/30 06:30:05;;;;;;;;;;;4.30;99.90;;;;;;5039528;28;19913;-93
2022/12/30 06:32:32;;;;;;;;;;;4.30;99.90;;;;;;5038539;28;20124;-93
2022/12/30 06:34:58;;;;;;;;;;;4.30;99.90;;;;;;5038491;28;19921;-93
2022/12/30 06:37:25;;;;;;;;;;;4.20;99.90;;;;;;5036809;28;19921;-93
2022/12/30 06:39:53;;;;;;;;;;;4.20;99.90;;;;;;5036245;28;19944;-93
2022/12/30 06:42:20;;;;;;;;;;;4.10;99.90;;;;;;5039257;28;19921;-94
2022/12/30 06:44:47;;;;;;;;;;;4.10;99.90;;;;;;5040159;28;19922;-94
2022/12/30 06:47:13;;;;;;;;;;;4.80;99.90;;;;;;5039025;28;19916;-93
2022/12/30 06:49:40;;;;;;;;;;;4.00;99.90;;;;;;5036672;28;19932;-93
2022/12/30 06:52:07;;;;;;;;;;;3.90;99.90;;;;;;5051347;28;19932;-93
2022/12/30 06:54:34;;;;;;;;;;;3.90;99.90;;;;;;5059808;28;19916;-94
2022/12/30 06:57:02;;;;;;;;;;;3.70;99.90;;;;;;5059445;28;19933;-95
2022/12/30 06:59:28;;;;;;;;;;;3.70;99.90;;;;;;5048528;28;19921;-93
2022/12/30 07:01:55;;;;;;;;;;;3.60;99.90;;;;;;5039882;28;19913;-94
2022/12/30 07:07:03;;;;;;;;;;;4.30;99.90;;;;;;5039530;28;19929;-92
2022/12/30 07:09:29;;;;;;;;;;;3.50;99.90;;;;;;5050092;28;19953;-93
2022/12/30 07:11:56;;;;;;;;;;;3.40;99.90;;;;;;5044070;28;19910;-95
2022/12/30 07:14:24;;;;;;;;;;;3.50;99.90;;;;;;5039414;28;19914;-94
2022/12/30 07:19:32;;;;;;;;;;;3.50;99.90;;;;;;5050121;28;19913;-94
2022/12/30 07:21:59;;;;;;;;;;;3.60;99.90;;;;;;5059292;28;19921;-93
2022/12/30 07:24:25;;;;;;;;;;;3.50;99.90;;;;;;5059154;28;19913;-94
2022/12/30 07:26:52;;;;;;;;;;;3.50;99.90;;;;;;5058926;28;19940;-94
2022/12/30 07:29:20;;;;;;;;;;;3.50;99.90;;;;;;5049907;28;19917;-94
2022/12/30 07:31:48;;;;;;;;;;;3.50;99.90;;;;;;5039517;28;19913;-94
2022/12/30 07:34:14;;;;;;;;;;;3.50;99.90;;;;;;5039150;28;19936;-93
2022/12/30 07:36:41;;;;;;;;;;;3.50;99.90;;;;;;5038432;28;19913;-94
2022/12/30 07:39:08;;;;;;;;;;;3.30;99.90;;;;;;5038942;28;19940;-94
2022/12/30 07:41:35;;;;;;;;;;;4.30;99.90;;;;;;5038586;28;19963;-93
2022/12/30 07:44:01;;;;;;;;;;;3.30;99.90;;;;;;5038576;28;19917;-94
2022/12/30 07:46:28;;;;;;;;;;;3.30;99.90;;;;;;5038192;28;19913;-94
2022/12/30 07:48:56;;;;;;;;;;;3.20;99.90;;;;;;5043542;28;19909;-93
2022/12/30 07:51:23;;;;;;;;;;;3.30;99.90;;;;;;5058720;28;19916;-94
2022/12/30 07:53:50;;;;;;;;;;;3.30;99.90;;;;;;5058726;28;19929;-94
2022/12/30 07:56:17;;;;;;;;;;;3.30;99.90;;;;;;5058168;28;19936;-92
2022/12/30 07:58:43;;;;;;;;;;;3.30;99.90;;;;;;5055058;28;19927;-92
2022/12/30 08:01:12;;;;;;;;;;;3.30;99.90;;;;;;5038634;28;19916;-93
2022/12/30 08:03:39;;;;;;;;;;;3.30;99.90;;;;;;5038468;28;19952;-94
2022/12/30 08:06:07;;;;;;;;;;;3.30;99.90;;;;;;5038196;28;19914;-93
2022/12/30 08:08:34;;;;;;;;;;;3.30;99.90;;;;;;5038658;28;19909;-92
2022/12/30 08:11:01;;;;;;;;;;;3.30;99.90;;;;;;5039983;28;19973;-93
2022/12/30 08:13:28;;;;;;;;;;;3.30;99.90;;;;;;5036240;28;19940;-93
2022/12/30 08:15:55;;;;;;;;;;;3.40;99.90;;;;;;5037930;28;19920;-94
2022/12/30 08:18:22;;;;;;;;;;;3.30;99.90;;;;;;5038274;28;19910;-94
2022/12/30 08:20:48;;;;;;;;;;;3.30;99.90;;;;;;5057784;28;19949;-94
2022/12/30 08:23:17;;;;;;;;;;;3.30;99.90;;;;;;5058162;28;19928;-94
2022/12/30 08:25:43;;;;;;;;;;;3.40;99.90;;;;;;5057560;28;19913;-94
2022/12/30 08:28:10;;;;;;;;;;;3.50;99.90;;;;;;5057799;28;19940;-94
2022/12/30 08:30:38;;;;;;;;;;;3.40;99.90;;;;;;5040391;28;19917;-95
2022/12/30 08:33:05;;;;;;;;;;;3.40;99.90;;;;;;5038234;28;19932;-94
2022/12/30 08:35:32;;;;;;;;;;;3.40;99.90;;;;;;5038132;28;19913;-94
2022/12/30 08:37:58;;;;;;;;;;;3.50;99.90;;;;;;5037856;28;19916;-93
2022/12/30 08:40:27;;;;;;;;;;;3.60;99.90;;;;;;5035696;28;19937;-95
2022/12/30 08:42:53;;;;;;;;;;;3.60;99.90;;;;;;5036028;28;19933;-94
2022/12/30 08:45:20;;;;;;;;;;;3.60;99.90;;;;;;5037451;28;19920;-93
2022/12/30 08:47:47;;;;;;;;;;;3.60;99.90;;;;;;5037573;28;19924;-93
2022/12/30 08:50:14;;;;;;;;;;;4.60;99.90;;;;;;5052164;28;19913;-94
2022/12/30 08:52:40;;;;;;;;;;;3.70;99.90;;;;;;5046803;28;19924;-93
2022/12/30 08:55:07;;;;;;;;;;;3.70;99.90;;;;;;5037656;28;19940;-94
2022/12/30 08:57:37;;;;;;;;;;;3.70;99.90;;;;;;5037253;28;19913;-94
2022/12/30 09:00:04;;;;;;;;;;;3.80;99.90;;;;;;5049972;28;19975;-93
2022/12/30 09:02:31;;;;;;;;;;;3.80;99.90;;;;;;5057363;28;19959;-94
2022/12/30 09:04:58;;;;;;;;;;;3.90;99.90;;;;;;5056472;28;19915;-94
2022/12/30 09:10:17;;;;;;;;;;;4.00;99.90;;;;;;5080429;28;19920;-71
2022/12/30 09:12:45;;;;;;;;;;;4.20;99.90;;;;;;5082647;28;19924;-71
2022/12/30 09:15:12;;;;;;;;;;;4.30;99.90;;;;;;5082758;28;20200;-70
2022/12/30 09:17:39;;;;;;;;;;;4.40;99.90;;;;;;5082671;28;19920;-71
2022/12/30 09:20:06;;;;;;;;;;;4.50;99.90;;;;;;5083142;28;19958;-70
2022/12/30 09:22:33;;;;;;;;;;;4.60;99.90;;;;;;5083212;28;19920;-71
2022/12/30 09:25:03;;;;;;;;;;;4.70;99.90;;;;;;5082371;28;19948;-71
2022/12/30 09:27:29;;;;;;;;;;;4.70;99.90;;;;;;5082644;28;19927;-70
2022/12/30 09:29:57;;;;;;;;;;;4.70;99.90;;;;;;5082982;28;20247;-70
2022/12/30 09:32:24;;;;;;;;;;;4.80;99.90;;;;;;5082466;28;20226;-71
2022/12/30 09:34:50;;;;;;;;;;;4.80;99.90;;;;;;5082855;28;19952;-71
2022/12/30 09:37:17;;;;;;;;;;;4.90;99.90;;;;;;5082420;28;19959;-71
2022/12/30 09:39:44;;;;;;;;;;;4.90;99.90;;;;;;5082755;28;19952;-71
2022/12/30 09:45:04;;;;;;;;;;;5.00;99.90;;;;;;5077979;28;19959;-70
2022/12/30 09:47:33;;;;;;;;;;;5.10;99.90;;;;;;5082260;28;19991;-70
2022/12/30 09:50:02;;;;;;;;;;;5.10;99.90;;;;;;5082855;28;19991;-68
2022/12/30 09:52:30;;;;;;;;;;;5.10;99.90;;;;;;5082870;28;19921;-70
2022/12/30 09:54:59;;;;;;;;;;;5.00;99.90;;;;;;5082932;28;19988;-71
2022/12/30 09:57:32;;;;;;;;;;;5.10;99.90;;;;;;5086157;28;19984;-70
2022/12/30 10:00:02;;;;;;;;;;;5.10;99.90;;;;;;5086396;28;20093;-70
2022/12/30 10:02:31;;;;;;;;;;;5.10;99.90;;;;;;5086332;28;19942;-70
2022/12/30 10:05:01;;;;;;;;;;;5.10;99.90;;;;;;5085187;28;19991;-69
2022/12/30 10:07:33;;;;;;;;;;;5.00;99.90;;;;;;5085233;28;19995;-69
2022/12/30 10:10:03;;;;;;;;;;;5.10;99.90;;;;;;5085775;28;19987;-70
2022/12/30 10:12:44;;;;;;;;;;;5.10;99.90;;;;;;5085732;28;19948;-69
2022/12/30 10:15:21;;;;;;;;;;;5.10;99.90;;;;;;5085133;28;19983;-70
2022/12/30 10:18:06;;;;;;;;;;;5.10;99.90;;;;;;5085420;28;19952;-71
2022/12/30 10:20:48;;;;;;;;;;;5.10;99.90;;;;;;5085626;28;19952;-70
2022/12/30 10:23:19;;;;;;;;;;;5.10;99.90;;;;;;5085932;28;20170;-70
2022/12/30 10:25:49;;;;;;;;;;;5.20;99.90;;;;;;5085629;28;19926;-71
2022/12/30 10:28:20;;;;;;;;;;;5.20;99.90;;;;;;5085514;28;19987;-70
2022/12/30 10:30:49;;;;;;;;;;;5.20;99.90;;;;;;5085482;28;20224;-70
2022/12/30 10:33:17;;;;;;;;;;;5.30;99.90;;;;;;5085768;28;19958;-71
2022/12/30 10:35:44;;;;;;;;;;;5.30;99.90;;;;;;5085444;28;20004;-70
2022/12/30 10:38:11;;;;;;;;;;;5.30;99.90;;;;;;5085216;28;19992;-71
2022/12/30 10:40:41;;;;;;;;;;;5.40;99.90;;;;;;5085252;28;20164;-71
2022/12/30 10:43:16;;;;;;;;;;;5.40;99.90;;;;;;5085237;28;20112;-71
2022/12/30 10:46:04;;;;;;;;;;;5.50;99.90;;;;;;5084763;28;19928;-71
2022/12/30 10:48:40;;;;;;;;;;;5.50;99.90;;;;;;5085138;28;19920;-68
2022/12/30 10:51:07;;;;;;;;;;;5.50;99.90;;;;;;5085176;28;19921;-71
2022/12/30 10:53:34;;;;;;;;;;;5.50;99.90;;;;;;5084992;28;19983;-70
2022/12/30 10:56:01;;;;;;;;;;;5.60;99.90;;;;;;5084584;28;19967;-71
2022/12/30 10:58:30;;;;;;;;;;;5.60;99.90;;;;;;5085016;28;19920;-70
2022/12/30 11:00:59;;;;;;;;;;;5.70;99.90;;;;;;5085155;28;19995;-70
2022/12/30 11:03:31;;;;;;;;;;;5.70;99.90;;;;;;5085171;28;19958;-69
2022/12/30 11:05:59;;;;;;;;;;;5.70;99.90;;;;;;5084130;28;19983;-70
2022/12/30 11:08:26;;;;;;;;;;;5.80;99.90;;;;;;5084690;28;19984;-71
2022/12/30 11:10:59;;;;;;;;;;;5.80;99.90;;;;;;5085005;28;19927;-71
2022/12/30 11:16:12;;;;;;;;;;;5.90;99.90;;;;;;5084463;28;19923;-70
2022/12/30 11:18:39;;;;;;;;;;;5.90;99.90;;;;;;5084785;28;19992;-71
2022/12/30 11:21:06;;;;;;;;;;;5.90;99.90;;;;;;5084846;28;19992;-71
2022/12/30 11:23:34;;;;;;;;;;;5.90;99.90;;;;;;5084523;28;19920;-70
2022/12/30 11:26:04;;;;;;;;;;;5.90;99.90;;;;;;5083621;28;19927;-71
2022/12/30 11:28:34;;;;;;;;;;;5.90;99.90;;;;;;5084427;28;19928;-71
2022/12/30 11:31:02;;;;;;;;;;;5.90;99.90;;;;;;5084499;28;19920;-71
2022/12/30 11:33:32;;;;;;;;;;;6.00;99.90;;;;;;5084167;28;20111;-71
2022/12/30 11:36:16;;;;;;;;;;;6.00;99.90;;;;;;5084338;28;19987;-71
2022/12/30 11:38:43;;;;;;;;;;;6.00;99.90;;;;;;5084384;28;19920;-71
2022/12/30 11:41:20;;;;;;;;;;;6.10;99.90;;;;;;5084397;28;19920;-71
2022/12/30 11:43:48;;;;;;;;;;;6.20;99.90;;;;;;5084304;28;20148;-71
2022/12/30 11:46:17;;;;;;;;;;;6.30;99.90;;;;;;5083370;28;19920;-71
2022/12/30 11:48:47;;;;;;;;;;;6.50;99.90;;;;;;5084254;28;19926;-71
2022/12/30 11:51:18;;;;;;;;;;;6.60;99.90;;;;;;5084257;28;19920;-71
2022/12/30 11:53:44;;;;;;;;;;;6.70;99.90;;;;;;5083950;28;19988;-71
2022/12/30 11:56:11;;;;;;;;;;;6.80;99.90;;;;;;5083527;28;20200;-71
2022/12/30 11:58:39;;;;;;;;;;;6.90;99.90;;;;;;5083752;28;19991;-70
2022/12/30 12:01:07;;;;;;;;;;;7.10;99.90;;;;;;5084055;28;20162;-71
2022/12/30 12:03:46;;;;;;;;;;;7.10;99.90;;;;;;5083927;28;19991;-73
2022/12/30 12:06:14;;;;;;;;;;;7.20;99.90;;;;;;5083425;28;19927;-71
2022/12/30 12:08:45;;;;;;;;;;;7.40;99.90;;;;;;5083552;28;19920;-71
2022/12/30 12:11:15;;;;;;;;;;;7.40;99.90;;;;;;5083964;28;19958;-71
2022/12/30 12:13:46;;;;;;;;;;;7.60;99.90;;;;;;5083725;28;19920;-70
2022/12/30 12:16:15;;;;;;;;;;;7.90;99.90;;;;;;5083608;28;19924;-71
2022/12/30 12:18:44;;;;;;;;;;;8.10;99.90;;;;;;5081763;28;19920;-71
2022/12/30 12:21:15;;;;;;;;;;;8.30;99.90;;;;;;5063464;28;19987;-71
2022/12/30 12:23:47;;;;;;;;;;;8.50;99.90;;;;;;5063694;28;20019;-71
2022/12/30 12:26:17;;;;;;;;;;;8.60;99.90;;;;;;5067074;28;19927;-71
2022/12/30 12:28:45;;;;;;;;;;;8.80;99.90;;;;;;5083628;28;19943;-71
2022/12/30 12:31:29;;;;;;;;;;;9.00;99.90;;;;;;5083612;28;19992;-71
2022/12/30 12:33:59;;;;;;;;;;;9.20;99.90;;;;;;5083455;28;19920;-72
2022/12/30 12:36:29;;;;;;;;;;;9.30;99.90;;;;;;5083297;28;19948;-72
2022/12/30 12:39:00;;;;;;;;;;;9.50;99.90;;;;;;5083578;28;19987;-73
2022/12/30 12:41:39;;;;;;;;;;;9.60;99.90;;;;;;5083572;28;19921;-70
2022/12/30 12:44:13;;;;;;;;;;;9.60;99.90;;;;;;5083442;28;19927;-72
2022/12/30 12:46:48;;;;;;;;;;;9.50;99.90;;;;;;5082366;28;20230;-72
2022/12/30 12:49:30;;;;;;;;;;;9.40;99.90;;;;;;5083217;28;20275;-71
2022/12/30 12:52:04;;;;;;;;;;;9.30;99.90;;;;;;5083546;28;19920;-73
2022/12/30 12:54:40;;;;;;;;;;;9.10;99.90;;;;;;5083157;28;19921;-71
2022/12/30 12:57:15;;;;;;;;;;;9.00;99.90;;;;;;5083087;28;19928;-70
2022/12/30 12:59:51;;;;;;;;;;;8.80;99.90;;;;;;5083451;28;19987;-71
2022/12/30 13:02:27;;;;;;;;;;;8.70;99.90;;;;;;5083233;28;19951;-71
2022/12/30 13:04:56;;;;;;;;;;;8.50;99.90;;;;;;5082950;28;20212;-70
2022/12/30 13:07:31;;;;;;;;;;;8.50;99.90;;;;;;5082483;28;19928;-70
2022/12/30 13:10:15;;;;;;;;;;;8.30;99.90;;;;;;5082169;28;19927;-71
2022/12/30 13:12:45;;;;;;;;;;;8.20;99.90;;;;;;5083137;28;20116;-70
2022/12/30 13:15:21;;;;;;;;;;;8.10;99.90;;;;;;5082735;28;19983;-70
2022/12/30 13:17:49;;;;;;;;;;;8.00;99.90;;;;;;5082414;28;19921;-69
2022/12/30 13:20:18;;;;;;;;;;;8.00;99.90;;;;;;5082865;28;20203;-70
2022/12/30 13:22:45;;;;;;;;;;;7.90;99.90;;;;;;5083136;28;19952;-71
2022/12/30 13:25:17;;;;;;;;;;;7.80;99.90;;;;;;5082736;28;20200;-70
2022/12/30 13:27:45;;;;;;;;;;;7.80;99.90;;;;;;5081962;28;19963;-71
2022/12/30 13:30:13;;;;;;;;;;;7.70;99.90;;;;;;5085204;28;19927;-71
2022/12/30 13:32:44;;;;;;;;;;;7.70;99.90;;;;;;5086868;28;19983;-69
2022/12/30 13:35:21;;;;;;;;;;;7.70;99.90;;;;;;5084211;28;20019;-71
2022/12/30 13:37:52;;;;;;;;;;;7.60;99.90;;;;;;5085972;28;19983;-71
2022/12/30 13:40:22;;;;;;;;;;;7.60;99.90;;;;;;5086527;28;19980;-71
2022/12/30 13:43:09;;;;;;;;;;;7.50;99.90;;;;;;5086203;28;19927;-70
2022/12/30 13:45:36;;;;;;;;;;;7.60;99.90;;;;;;5080298;28;19921;-71
2022/12/30 13:48:05;;;;;;;;;;;7.50;99.90;;;;;;5066269;28;19920;-71
2022/12/30 13:50:33;;;;;;;;;;;7.50;99.90;;;;;;5086295;28;19921;-71
2022/12/30 13:53:01;;;;;;;;;;;7.50;99.90;;;;;;5086446;28;19920;-70
2022/12/30 13:55:30;;;;;;;;;;;7.50;99.90;;;;;;5085442;28;19984;-70
2022/12/30 13:58:03;;;;;;;;;;;7.50;99.90;;;;;;5085670;28;19955;-71
2022/12/30 14:00:31;;;;;;;;;;;7.50;99.90;;;;;;5085913;28;19920;-71
2022/12/30 14:03:00;;;;;;;;;;;7.40;99.90;;;;;;5086016;28;19924;-71
2022/12/30 14:05:30;;;;;;;;;;;7.50;99.90;;;;;;5085602;28;19983;-71
2022/12/30 14:07:56;;;;;;;;;;;7.40;99.90;;;;;;5085808;28;20152;-70
2022/12/30 14:10:50;;;;;;;;;;;7.40;99.90;;;;;;5084929;28;20380;-69
2022/12/30 14:13:32;;;;;;;;;;;7.40;99.90;;;;;;5066142;28;19956;-71
2022/12/30 14:15:59;;;;;;;;;;;7.40;99.90;;;;;;5079230;28;19956;-73
2022/12/30 14:18:32;;;;;;;;;;;7.40;99.90;;;;;;5085914;28;19927;-71
2022/12/30 14:20:59;;;;;;;;;;;7.30;99.90;;;;;;5075301;28;19986;-71
2022/12/30 14:23:35;;;;;;;;;;;7.30;99.90;;;;;;5085476;28;19926;-70
2022/12/30 14:26:17;;;;;;;;;;;7.30;99.90;;;;;;5083674;28;19920;-70
2022/12/30 14:28:45;;;;;;;;;;;7.30;99.90;;;;;;5083092;28;19928;-69
2022/12/30 14:31:22;;;;;;;;;;;7.30;99.90;;;;;;5085707;28;19956;-70
2022/12/30 14:33:49;;;;;;;;;;;7.30;99.90;;;;;;5085548;28;19979;-69
2022/12/30 14:36:18;;;;;;;;;;;7.30;99.90;;;;;;5085681;28;20123;-69
2022/12/30 14:38:47;;;;;;;;;;;7.30;99.90;;;;;;5085330;28;20111;-70
2022/12/30 14:41:15;;;;;;;;;;;7.20;99.90;;;;;;5084672;28;19952;-69
2022/12/30 14:43:44;;;;;;;;;;;7.20;99.90;;;;;;5085926;28;20131;-70
2022/12/30 14:46:29;;;;;;;;;;;7.20;99.90;;;;;;5085428;28;19921;-70
2022/12/30 14:49:02;;;;;;;;;;;7.20;99.90;;;;;;5085593;28;19991;-68
2022/12/30 14:51:29;;;;;;;;;;;7.20;99.90;;;;;;5085581;28;19975;-69
2022/12/30 14:53:56;;;;;;;;;;;7.20;99.90;;;;;;5085601;28;19953;-69
2022/12/30 14:56:22;;;;;;;;;;;7.20;99.90;;;;;;5084967;28;19920;-69
2022/12/30 14:58:49;;;;;;;;;;;7.30;99.90;;;;;;5080939;28;19987;-69
2022/12/30 15:01:19;;;;;;;;;;;7.20;99.90;;;;;;5084474;28;19959;-68
2022/12/30 15:03:45;;;;;;;;;;;7.30;99.90;;;;;;5084993;28;19947;-69
2022/12/30 15:06:14;;;;;;;;;;;7.30;99.90;;;;;;5084828;28;19959;-69
2022/12/30 15:08:41;;;;;;;;;;;7.30;99.90;;;;;;5084574;28;20333;-69
2022/12/30 15:11:19;;;;;;;;;;;7.30;99.90;;;;;;5085033;28;20187;-69
2022/12/30 15:13:47;;;;;;;;;;;7.30;99.90;;;;;;5071004;28;20004;-69
2022/12/30 15:16:16;;;;;;;;;;;7.40;99.90;;;;;;5083919;28;19979;-69
2022/12/30 15:18:43;;;;;;;;;;;7.30;99.90;;;;;;5084809;28;19928;-69
2022/12/30 15:21:19;;;;;;;;;;;7.40;99.90;;;;;;5084610;28;19987;-69
2022/12/30 15:23:46;;;;;;;;;;;7.40;99.90;;;;;;5084641;28;19924;-69
2022/12/30 15:26:15;;;;;;;;;;;7.30;99.90;;;;;;5084277;28;19963;-70
2022/12/30 15:28:42;;;;;;;;;;;7.30;99.90;;;;;;5083950;28;19991;-69
2022/12/30 15:31:16;;;;;;;;;;;7.30;99.90;;;;;;5084452;28;19956;-68
2022/12/30 15:33:52;;;;;;;;;;;7.30;99.90;;;;;;5084718;28;19921;-68
2022/12/30 15:36:21;;;;;;;;;;;7.30;99.90;;;;;;5084334;28;19927;-68
2022/12/30 15:38:48;;;;;;;;;;;7.30;99.90;;;;;;5084341;28;20166;-69
2022/12/30 15:41:17;;;;;;;;;;;7.30;99.90;;;;;;5084569;28;19980;-69
2022/12/30 15:43:43;;;;;;;;;;;7.30;99.90;;;;;;5084386;28;20187;-73
2022/12/30 15:46:22;;;;;;;;;;;7.30;99.90;;;;;;5084168;28;19927;-68
2022/12/30 15:48:49;;;;;;;;;;;7.30;99.90;;;;;;5083960;28;19995;-70
2022/12/30 15:51:16;;;;;;;;;;;7.40;99.90;;;;;;5084169;28;19966;-69